sensor_id;sensor_type;location;lat;lon;timestamp;temperature;humidity
27645;DHT22;15054;57.152;-2.118;2022-09-17T00:01:23;8.20;99.90
27645;DHT22;15054;57.152;-2.118;2022-09-17T00:03:52;8.10;99.90
27645;DHT22;15054;57.152;-2.118;2022-09-17T00:06:20;8.10;99.90
27645;DHT22;15054;57.152;-2.118;2022-09-17T00:08:47;8.10;99.90
27645;DHT22;15054;57.152;-2.118;2022-09-17T00:11:18;8.00;99.90
27645;DHT22;15054;57.152;-2.118;2022-09-17T00:13:49;8.10;99.90
27645;DHT22;15054;57.152;-2.118;2022-09-17T00:16:24;8.10;99.90
27645;DHT22;15054;57.152;-2.118;2022-09-17T00:18:52;8.10;99.90
27645;DHT22;15054;57.152;-2.118;2022-09-17T00:21:20;8.10;99.90
27645;DHT22;15054;57.152;-2.118;2022-09-17T00:23:59;8.00;99.90
27645;DHT22;15054;57.152;-2.118;2022-09-17T00:26:27;8.10;99.90
27645;DHT22;15054;57.152;-2.118;2022-09-17T00:28:56;8.00;99.90
27645;DHT22;15054;57.152;-2.118;2022-09-17T00:31:24;8.00;99.90
27645;DHT22;15054;57.152;-2.118;2022-09-17T00:33:52;8.00;99.90
27645;DHT22;15054;57.152;-2.118;2022-09-17T00:36:20;8.00;99.90
27645;DHT22;15054;57.152;-2.118;2022-09-17T00:38:49;8.00;99.90
27645;DHT22;15054;57.152;-2.118;2022-09-17T00:41:16;8.00;99.90
27645;DHT22;15054;57.152;-2.118;2022-09-17T00:43:50;7.90;99.90
27645;DHT22;15054;57.152;-2.118;2022-09-17T00:49:24;7.90;99.90
27645;DHT22;15054;57.152;-2.118;2022-09-17T00:52:07;7.80;99.90
27645;DHT22;15054;57.152;-2.118;2022-09-17T00:54:37;7.80;99.90
27645;DHT22;15054;57.152;-2.118;2022-09-17T00:57:05;7.90;99.90
27645;DHT22;15054;57.152;-2.118;2022-09-17T00:59:32;7.80;99.90
27645;DHT22;15054;57.152;-2.118;2022-09-17T01:01:59;7.80;99.90
27645;DHT22;15054;57.152;-2.118;2022-09-17T01:04:27;7.70;99.90
27645;DHT22;15054;57.152;-2.118;2022-09-17T01:13:12;7.50;99.90
27645;DHT22;15054;57.152;-2.118;2022-09-17T01:15:45;7.50;99.90
27645;DHT22;15054;57.152;-2.118;2022-09-17T01:31:52;7.50;99.90
27645;DHT22;15054;57.152;-2.118;2022-09-17T01:34:57;7.60;99.90
27645;DHT22;15054;57.152;-2.118;2022-09-17T01:40:25;7.70;99.90
27645;DHT22;15054;57.152;-2.118;2022-09-17T01:43:09;7.60;99.90
27645;DHT22;15054;57.152;-2.118;2022-09-17T01:46:13;7.60;99.90
27645;DHT22;15054;57.152;-2.118;2022-09-17T01:48:45;7.60;99.90
27645;DHT22;15054;57.152;-2.118;2022-09-17T01:51:21;7.50;99.90
27645;DHT22;15054;57.152;-2.118;2022-09-17T01:56:20;7.50;99.90
27645;DHT22;15054;57.152;-2.118;2022-09-17T01:58:57;7.60;99.90
27645;DHT22;15054;57.152;-2.118;2022-09-17T02:01:26;7.50;99.90
27645;DHT22;15054;57.152;-2.118;2022-09-17T02:04:06;7.50;99.90
27645;DHT22;15054;57.152;-2.118;2022-09-17T02:06:38;7.40;99.90
27645;DHT22;15054;57.152;-2.118;2022-09-17T02:09:14;7.40;99.90
27645;DHT22;15054;57.152;-2.118;2022-09-17T02:11:43;7.40;99.90
27645;DHT22;15054;57.152;-2.118;2022-09-17T02:14:15;7.30;99.90
27645;DHT22;15054;57.152;-2.118;2022-09-17T02:16:51;7.30;99.90
27645;DHT22;15054;57.152;-2.118;2022-09-17T02:19:26;7.40;99.90
27645;DHT22;15054;57.152;-2.118;2022-09-17T02:25:03;7.50;99.90
27645;DHT22;15054;57.152;-2.118;2022-09-17T02:30:13;7.50;99.90
27645;DHT22;15054;57.152;-2.118;2022-09-17T02:32:41;7.50;99.90
27645;DHT22;15054;57.152;-2.118;2022-09-17T02:35:09;7.50;99.90
27645;DHT22;15054;57.152;-2.118;2022-09-17T02:37:41;7.60;99.90
27645;DHT22;15054;57.152;-2.118;2022-09-17T02:40:11;7.60;99.90
27645;DHT22;15054;57.152;-2.118;2022-09-17T02:43:09;7.60;99.90
27645;DHT22;15054;57.152;-2.118;2022-09-17T02:59:21;7.60;99.90
27645;DHT22;15054;57.152;-2.118;2022-09-17T03:02:11;7.60;99.90
27645;DHT22;15054;57.152;-2.118;2022-09-17T03:04:44;7.60;99.90
27645;DHT22;15054;57.152;-2.118;2022-09-17T03:07:13;7.60;99.90
27645;DHT22;15054;57.152;-2.118;2022-09-17T03:09:40;7.60;99.90
27645;DHT22;15054;57.152;-2.118;2022-09-17T03:12:10;7.60;99.90
27645;DHT22;15054;57.152;-2.118;2022-09-17T03:14:37;7.60;99.90
27645;DHT22;15054;57.152;-2.118;2022-09-17T03:17:04;7.70;99.90
27645;DHT22;15054;57.152;-2.118;2022-09-17T03:19:31;7.70;99.90
27645;DHT22;15054;57.152;-2.118;2022-09-17T03:21:58;7.70;99.90
27645;DHT22;15054;57.152;-2.118;2022-09-17T03:24:25;7.80;99.90
27645;DHT22;15054;57.152;-2.118;2022-09-17T03:26:52;7.80;99.90
27645;DHT22;15054;57.152;-2.118;2022-09-17T03:29:20;7.80;99.90
27645;DHT22;15054;57.152;-2.118;2022-09-17T03:31:47;7.80;99.90
27645;DHT22;15054;57.152;-2.118;2022-09-17T03:34:14;7.80;99.90
27645;DHT22;15054;57.152;-2.118;2022-09-17T03:36:41;7.90;99.90
27645;DHT22;15054;57.152;-2.118;2022-09-17T03:39:08;7.80;99.90
27645;DHT22;15054;57.152;-2.118;2022-09-17T03:41:35;7.80;99.90
27645;DHT22;15054;57.152;-2.118;2022-09-17T03:44:02;7.70;99.90
27645;DHT22;15054;57.152;-2.118;2022-09-17T03:46:30;7.70;99.90
27645;DHT22;15054;57.152;-2.118;2022-09-17T03:48:57;7.80;99.90
27645;DHT22;15054;57.152;-2.118;2022-09-17T03:51:24;7.80;99.90
27645;DHT22;15054;57.152;-2.118;2022-09-17T03:53:51;7.80;99.90
27645;DHT22;15054;57.152;-2.118;2022-09-17T03:56:19;7.80;99.90
27645;DHT22;15054;57.152;-2.118;2022-09-17T03:58:46;7.70;99.90
27645;DHT22;15054;57.152;-2.118;2022-09-17T04:01:13;7.70;99.90
27645;DHT22;15054;57.152;-2.118;2022-09-17T04:03:40;7.80;99.90
27645;DHT22;15054;57.152;-2.118;2022-09-17T04:06:07;7.80;99.90
27645;DHT22;15054;57.152;-2.118;2022-09-17T04:08:35;7.70;99.90
27645;DHT22;15054;57.152;-2.118;2022-09-17T04:11:02;7.70;99.90
27645;DHT22;15054;57.152;-2.118;2022-09-17T04:13:29;7.80;99.90
27645;DHT22;15054;57.152;-2.118;2022-09-17T04:15:56;7.70;99.90
27645;DHT22;15054;57.152;-2.118;2022-09-17T04:18:24;7.70;99.90
27645;DHT22;15054;57.152;-2.118;2022-09-17T04:20:51;7.70;99.90
27645;DHT22;15054;57.152;-2.118;2022-09-17T04:23:19;7.70;99.90
27645;DHT22;15054;57.152;-2.118;2022-09-17T04:25:46;7.70;99.90
27645;DHT22;15054;57.152;-2.118;2022-09-17T04:28:13;7.70;99.90
27645;DHT22;15054;57.152;-2.118;2022-09-17T04:30:41;7.70;99.90
27645;DHT22;15054;57.152;-2.118;2022-09-17T04:33:11;7.60;99.90
27645;DHT22;15054;57.152;-2.118;2022-09-17T04:35:38;7.60;99.90
27645;DHT22;15054;57.152;-2.118;2022-09-17T04:38:06;7.50;99.90
27645;DHT22;15054;57.152;-2.118;2022-09-17T04:40:33;7.60;99.90
27645;DHT22;15054;57.152;-2.118;2022-09-17T04:43:00;7.60;99.90
27645;DHT22;15054;57.152;-2.118;2022-09-17T04:45:30;7.50;99.90
27645;DHT22;15054;57.152;-2.118;2022-09-17T04:47:59;7.50;99.90
27645;DHT22;15054;57.152;-2.118;2022-09-17T04:50:27;7.40;99.90
27645;DHT22;15054;57.152;-2.118;2022-09-17T04:52:54;7.40;99.90
27645;DHT22;15054;57.152;-2.118;2022-09-17T04:55:21;7.40;99.90
27645;DHT22;15054;57.152;-2.118;2022-09-17T04:57:51;7.40;99.90
27645;DHT22;15054;57.152;-2.118;2022-09-17T05:00:19;7.40;99.90
27645;DHT22;15054;57.152;-2.118;2022-09-17T05:02:49;7.50;99.90
27645;DHT22;15054;57.152;-2.118;2022-09-17T05:05:17;7.50;99.90
27645;DHT22;15054;57.152;-2.118;2022-09-17T05:07:47;7.50;99.90
27645;DHT22;15054;57.152;-2.118;2022-09-17T05:10:16;7.60;99.90
27645;DHT22;15054;57.152;-2.118;2022-09-17T05:12:50;7.70;99.90
27645;DHT22;15054;57.152;-2.118;2022-09-17T05:15:18;7.80;99.90
27645;DHT22;15054;57.152;-2.118;2022-09-17T05:17:45;7.90;99.90
27645;DHT22;15054;57.152;-2.118;2022-09-17T05:20:13;8.00;99.90
27645;DHT22;15054;57.152;-2.118;2022-09-17T05:22:48;8.00;99.90
27645;DHT22;15054;57.152;-2.118;2022-09-17T05:25:17;8.00;99.90
27645;DHT22;15054;57.152;-2.118;2022-09-17T05:27:44;8.00;99.90
27645;DHT22;15054;57.152;-2.118;2022-09-17T05:30:11;8.00;99.90
27645;DHT22;15054;57.152;-2.118;2022-09-17T05:32:38;8.00;99.90
27645;DHT22;15054;57.152;-2.118;2022-09-17T05:35:07;8.00;99.90
27645;DHT22;15054;57.152;-2.118;2022-09-17T05:37:35;8.00;99.90
27645;DHT22;15054;57.152;-2.118;2022-09-17T05:40:04;8.00;99.90
27645;DHT22;15054;57.152;-2.118;2022-09-17T05:42:33;8.00;99.90
27645;DHT22;15054;57.152;-2.118;2022-09-17T05:45:00;8.00;99.90
27645;DHT22;15054;57.152;-2.118;2022-09-17T05:47:27;7.90;99.90
27645;DHT22;15054;57.152;-2.118;2022-09-17T05:49:54;8.00;99.90
27645;DHT22;15054;57.152;-2.118;2022-09-17T05:52:21;8.10;99.90
27645;DHT22;15054;57.152;-2.118;2022-09-17T05:54:48;8.10;99.90
27645;DHT22;15054;57.152;-2.118;2022-09-17T05:57:15;8.20;99.90
27645;DHT22;15054;57.152;-2.118;2022-09-17T05:59:42;8.20;99.90
27645;DHT22;15054;57.152;-2.118;2022-09-17T06:02:12;8.30;99.90
27645;DHT22;15054;57.152;-2.118;2022-09-17T06:04:39;8.30;99.90
27645;DHT22;15054;57.152;-2.118;2022-09-17T06:07:07;8.30;99.90
27645;DHT22;15054;57.152;-2.118;2022-09-17T06:09:35;8.30;99.90
27645;DHT22;15054;57.152;-2.118;2022-09-17T06:12:07;8.40;99.90
27645;DHT22;15054;57.152;-2.118;2022-09-17T06:14:34;8.40;99.90
27645;DHT22;15054;57.152;-2.118;2022-09-17T06:17:01;8.50;99.90
27645;DHT22;15054;57.152;-2.118;2022-09-17T06:19:28;8.50;99.90
27645;DHT22;15054;57.152;-2.118;2022-09-17T06:21:55;8.50;99.90
27645;DHT22;15054;57.152;-2.118;2022-09-17T06:24:22;8.60;99.90
27645;DHT22;15054;57.152;-2.118;2022-09-17T06:26:50;8.60;99.90
27645;DHT22;15054;57.152;-2.118;2022-09-17T06:29:18;8.60;99.90
27645;DHT22;15054;57.152;-2.118;2022-09-17T06:31:47;8.70;99.90
27645;DHT22;15054;57.152;-2.118;2022-09-17T06:34:15;8.80;99.90
27645;DHT22;15054;57.152;-2.118;2022-09-17T06:36:42;8.90;99.90
27645;DHT22;15054;57.152;-2.118;2022-09-17T06:39:09;9.00;99.90
27645;DHT22;15054;57.152;-2.118;2022-09-17T06:41:37;9.00;99.90
27645;DHT22;15054;57.152;-2.118;2022-09-17T06:44:05;9.10;99.90
27645;DHT22;15054;57.152;-2.118;2022-09-17T06:46:32;9.20;99.90
27645;DHT22;15054;57.152;-2.118;2022-09-17T06:48:59;9.30;99.90
27645;DHT22;15054;57.152;-2.118;2022-09-17T06:51:26;9.30;99.90
27645;DHT22;15054;57.152;-2.118;2022-09-17T06:53:53;9.40;99.90
27645;DHT22;15054;57.152;-2.118;2022-09-17T06:56:20;9.50;99.90
27645;DHT22;15054;57.152;-2.118;2022-09-17T06:58:47;9.60;99.90
27645;DHT22;15054;57.152;-2.118;2022-09-17T07:01:15;9.70;99.90
27645;DHT22;15054;57.152;-2.118;2022-09-17T07:03:42;9.80;99.90
27645;DHT22;15054;57.152;-2.118;2022-09-17T07:06:09;9.80;99.90
27645;DHT22;15054;57.152;-2.118;2022-09-17T07:08:39;9.90;99.90
27645;DHT22;15054;57.152;-2.118;2022-09-17T07:11:06;9.90;99.90
27645;DHT22;15054;57.152;-2.118;2022-09-17T07:13:34;9.90;99.90
27645;DHT22;15054;57.152;-2.118;2022-09-17T07:16:03;9.90;99.90
27645;DHT22;15054;57.152;-2.118;2022-09-17T07:18:31;10.00;99.90
27645;DHT22;15054;57.152;-2.118;2022-09-17T07:21:00;10.00;99.90
27645;DHT22;15054;57.152;-2.118;2022-09-17T07:23:30;10.10;99.90
27645;DHT22;15054;57.152;-2.118;2022-09-17T07:26:02;10.10;99.90
27645;DHT22;15054;57.152;-2.118;2022-09-17T07:28:31;10.10;99.90
27645;DHT22;15054;57.152;-2.118;2022-09-17T07:31:01;10.10;99.90
27645;DHT22;15054;57.152;-2.118;2022-09-17T07:33:28;10.20;99.90
27645;DHT22;15054;57.152;-2.118;2022-09-17T07:35:57;10.20;99.90
27645;DHT22;15054;57.152;-2.118;2022-09-17T07:38:26;10.10;99.90
27645;DHT22;15054;57.152;-2.118;2022-09-17T07:40:54;10.10;99.90
27645;DHT22;15054;57.152;-2.118;2022-09-17T07:43:21;10.00;99.90
27645;DHT22;15054;57.152;-2.118;2022-09-17T07:45:48;10.00;99.90
27645;DHT22;15054;57.152;-2.118;2022-09-17T07:48:16;10.00;99.90
27645;DHT22;15054;57.152;-2.118;2022-09-17T07:50:43;9.90;99.90
27645;DHT22;15054;57.152;-2.118;2022-09-17T07:53:10;10.10;99.90
27645;DHT22;15054;57.152;-2.118;2022-09-17T07:55:37;10.30;99.90
27645;DHT22;15054;57.152;-2.118;2022-09-17T07:58:05;10.60;99.90
27645;DHT22;15054;57.152;-2.118;2022-09-17T08:00:32;10.80;99.90
27645;DHT22;15054;57.152;-2.118;2022-09-17T08:02:59;10.90;99.90
27645;DHT22;15054;57.152;-2.118;2022-09-17T08:05:27;11.10;99.90
27645;DHT22;15054;57.152;-2.118;2022-09-17T08:07:54;11.30;99.90
27645;DHT22;15054;57.152;-2.118;2022-09-17T08:10:22;11.20;99.90
27645;DHT22;15054;57.152;-2.118;2022-09-17T08:12:50;11.20;99.90
27645;DHT22;15054;57.152;-2.118;2022-09-17T08:15:20;11.10;99.90
27645;DHT22;15054;57.152;-2.118;2022-09-17T08:17:48;11.40;99.90
27645;DHT22;15054;57.152;-2.118;2022-09-17T08:20:16;11.60;99.90
27645;DHT22;15054;57.152;-2.118;2022-09-17T08:22:43;11.80;99.90
27645;DHT22;15054;57.152;-2.118;2022-09-17T08:25:16;11.90;99.90
27645;DHT22;15054;57.152;-2.118;2022-09-17T08:27:43;11.90;99.90
27645;DHT22;15054;57.152;-2.118;2022-09-17T08:30:10;12.10;99.90
27645;DHT22;15054;57.152;-2.118;2022-09-17T08:32:37;12.10;99.90
27645;DHT22;15054;57.152;-2.118;2022-09-17T08:35:04;12.00;99.90
27645;DHT22;15054;57.152;-2.118;2022-09-17T08:37:33;11.90;99.90
27645;DHT22;15054;57.152;-2.118;2022-09-17T08:40:01;11.90;99.90
27645;DHT22;15054;57.152;-2.118;2022-09-17T08:42:38;11.80;99.90
27645;DHT22;15054;57.152;-2.118;2022-09-17T08:45:10;11.90;99.90
27645;DHT22;15054;57.152;-2.118;2022-09-17T08:47:41;11.90;99.90
27645;DHT22;15054;57.152;-2.118;2022-09-17T08:50:15;12.00;99.90
27645;DHT22;15054;57.152;-2.118;2022-09-17T09:06:30;11.90;99.90
27645;DHT22;15054;57.152;-2.118;2022-09-17T09:09:02;11.80;99.90
27645;DHT22;15054;57.152;-2.118;2022-09-17T09:11:30;12.00;99.90
27645;DHT22;15054;57.152;-2.118;2022-09-17T09:14:21;12.10;99.90
27645;DHT22;15054;57.152;-2.118;2022-09-17T09:16:51;12.30;99.90
27645;DHT22;15054;57.152;-2.118;2022-09-17T09:19:41;12.40;99.90
27645;DHT22;15054;57.152;-2.118;2022-09-17T09:27:32;12.70;99.90
27645;DHT22;15054;57.152;-2.118;2022-09-17T09:30:05;12.90;99.90
27645;DHT22;15054;57.152;-2.118;2022-09-17T09:35:31;13.10;99.90
27645;DHT22;15054;57.152;-2.118;2022-09-17T09:40:36;13.30;99.90
27645;DHT22;15054;57.152;-2.118;2022-09-17T09:43:34;13.20;99.90
27645;DHT22;15054;57.152;-2.118;2022-09-17T09:52:19;13.10;99.90
27645;DHT22;15054;57.152;-2.118;2022-09-17T10:00:37;12.90;99.90
27645;DHT22;15054;57.152;-2.118;2022-09-17T10:03:18;12.90;99.90
27645;DHT22;15054;57.152;-2.118;2022-09-17T10:05:55;12.90;99.90
27645;DHT22;15054;57.152;-2.118;2022-09-17T10:08:25;13.00;99.90
27645;DHT22;15054;57.152;-2.118;2022-09-17T10:10:58;13.10;99.90
27645;DHT22;15054;57.152;-2.118;2022-09-17T10:13:31;13.10;99.90
27645;DHT22;15054;57.152;-2.118;2022-09-17T10:16:28;12.80;99.90
27645;DHT22;15054;57.152;-2.118;2022-09-17T10:21:39;12.40;99.90
27645;DHT22;15054;57.152;-2.118;2022-09-17T10:26:40;12.30;99.90
27645;DHT22;15054;57.152;-2.118;2022-09-17T10:29:14;12.50;99.90
27645;DHT22;15054;57.152;-2.118;2022-09-17T10:31:56;12.80;99.90
27645;DHT22;15054;57.152;-2.118;2022-09-17T10:34:24;13.20;99.90
27645;DHT22;15054;57.152;-2.118;2022-09-17T10:36:53;13.30;99.90
27645;DHT22;15054;57.152;-2.118;2022-09-17T10:39:37;13.40;99.90
27645;DHT22;15054;57.152;-2.118;2022-09-17T10:44:38;13.50;99.90
27645;DHT22;15054;57.152;-2.118;2022-09-17T10:47:25;13.50;99.90
27645;DHT22;15054;57.152;-2.118;2022-09-17T10:50:00;13.40;99.90
27645;DHT22;15054;57.152;-2.118;2022-09-17T10:52:32;13.30;99.90
27645;DHT22;15054;57.152;-2.118;2022-09-17T11:20:02;12.90;99.90
27645;DHT22;15054;57.152;-2.118;2022-09-17T11:32:05;13.20;99.90
27645;DHT22;15054;57.152;-2.118;2022-09-17T11:37:41;13.30;99.90
27645;DHT22;15054;57.152;-2.118;2022-09-17T11:40:23;13.30;99.90
27645;DHT22;15054;57.152;-2.118;2022-09-17T11:43:02;13.20;99.90
27645;DHT22;15054;57.152;-2.118;2022-09-17T11:48:17;12.90;99.90
27645;DHT22;15054;57.152;-2.118;2022-09-17T11:50:59;12.90;99.90
27645;DHT22;15054;57.152;-2.118;2022-09-17T11:58:35;12.90;99.90
27645;DHT22;15054;57.152;-2.118;2022-09-17T12:04:18;12.90;99.90
27645;DHT22;15054;57.152;-2.118;2022-09-17T12:06:56;12.90;99.90
27645;DHT22;15054;57.152;-2.118;2022-09-17T12:09:28;12.70;99.90
27645;DHT22;15054;57.152;-2.118;2022-09-17T12:12:12;12.70;99.90
27645;DHT22;15054;57.152;-2.118;2022-09-17T12:15:20;12.70;99.90
27645;DHT22;15054;57.152;-2.118;2022-09-17T12:21:01;12.80;99.90
27645;DHT22;15054;57.152;-2.118;2022-09-17T12:23:36;13.00;99.90
27645;DHT22;15054;57.152;-2.118;2022-09-17T12:26:22;13.00;99.90
27645;DHT22;15054;57.152;-2.118;2022-09-17T12:29:27;13.00;99.90
27645;DHT22;15054;57.152;-2.118;2022-09-17T12:46:14;12.60;99.90
27645;DHT22;15054;57.152;-2.118;2022-09-17T12:49:31;12.20;99.90
27645;DHT22;15054;57.152;-2.118;2022-09-17T13:12:49;12.30;99.90
27645;DHT22;15054;57.152;-2.118;2022-09-17T13:21:12;12.60;99.90
27645;DHT22;15054;57.152;-2.118;2022-09-17T13:23:49;12.60;99.90
27645;DHT22;15054;57.152;-2.118;2022-09-17T13:26:20;12.70;99.90
27645;DHT22;15054;57.152;-2.118;2022-09-17T13:28:50;12.70;99.90
27645;DHT22;15054;57.152;-2.118;2022-09-17T13:34:02;12.70;99.90
27645;DHT22;15054;57.152;-2.118;2022-09-17T13:36:46;12.60;99.90
27645;DHT22;15054;57.152;-2.118;2022-09-17T13:39:39;12.70;99.90
27645;DHT22;15054;57.152;-2.118;2022-09-17T13:42:15;12.90;99.90
27645;DHT22;15054;57.152;-2.118;2022-09-17T13:47:31;13.00;99.90
27645;DHT22;15054;57.152;-2.118;2022-09-17T13:50:10;12.80;99.90
27645;DHT22;15054;57.152;-2.118;2022-09-17T13:52:51;12.60;99.90
27645;DHT22;15054;57.152;-2.118;2022-09-17T13:55:46;12.40;99.90
27645;DHT22;15054;57.152;-2.118;2022-09-17T13:58:23;12.30;99.90
27645;DHT22;15054;57.152;-2.118;2022-09-17T14:01:10;12.30;99.90
27645;DHT22;15054;57.152;-2.118;2022-09-17T14:13:52;12.50;99.90
27645;DHT22;15054;57.152;-2.118;2022-09-17T14:16:48;12.50;99.90
27645;DHT22;15054;57.152;-2.118;2022-09-17T14:19:34;12.40;99.90
27645;DHT22;15054;57.152;-2.118;2022-09-17T14:22:25;12.40;99.90
27645;DHT22;15054;57.152;-2.118;2022-09-17T14:24:53;12.50;99.90
27645;DHT22;15054;57.152;-2.118;2022-09-17T14:27:45;12.60;99.90
27645;DHT22;15054;57.152;-2.118;2022-09-17T14:30:37;12.70;99.90
27645;DHT22;15054;57.152;-2.118;2022-09-17T14:33:15;12.90;99.90
27645;DHT22;15054;57.152;-2.118;2022-09-17T14:35:45;13.00;99.90
27645;DHT22;15054;57.152;-2.118;2022-09-17T14:41:06;13.00;99.90
27645;DHT22;15054;57.152;-2.118;2022-09-17T14:44:25;13.10;99.90
27645;DHT22;15054;57.152;-2.118;2022-09-17T14:47:05;13.10;99.90
27645;DHT22;15054;57.152;-2.118;2022-09-17T14:49:36;13.10;99.90
27645;DHT22;15054;57.152;-2.118;2022-09-17T14:52:26;13.00;99.90
27645;DHT22;15054;57.152;-2.118;2022-09-17T14:57:39;12.90;99.90
27645;DHT22;15054;57.152;-2.118;2022-09-17T15:00:15;12.90;99.90
27645;DHT22;15054;57.152;-2.118;2022-09-17T15:02:44;12.80;99.90
27645;DHT22;15054;57.152;-2.118;2022-09-17T15:05:27;12.80;99.90
27645;DHT22;15054;57.152;-2.118;2022-09-17T15:10:37;12.80;99.90
27645;DHT22;15054;57.152;-2.118;2022-09-17T15:13:27;12.80;99.90
27645;DHT22;15054;57.152;-2.118;2022-09-17T15:15:59;12.80;99.90
27645;DHT22;15054;57.152;-2.118;2022-09-17T15:18:41;12.70;99.90
27645;DHT22;15054;57.152;-2.118;2022-09-17T15:21:28;12.60;99.90
27645;DHT22;15054;57.152;-2.118;2022-09-17T15:26:58;12.40;99.90
27645;DHT22;15054;57.152;-2.118;2022-09-17T15:29:27;12.40;99.90
27645;DHT22;15054;57.152;-2.118;2022-09-17T15:31:57;12.40;99.90
27645;DHT22;15054;57.152;-2.118;2022-09-17T15:34:24;12.40;99.90
27645;DHT22;15054;57.152;-2.118;2022-09-17T15:37:26;12.50;99.90
27645;DHT22;15054;57.152;-2.118;2022-09-17T15:39:56;12.50;99.90
27645;DHT22;15054;57.152;-2.118;2022-09-17T15:42:27;12.50;99.90
27645;DHT22;15054;57.152;-2.118;2022-09-17T15:45:18;12.50;99.90
27645;DHT22;15054;57.152;-2.118;2022-09-17T15:47:57;12.60;99.90
27645;DHT22;15054;57.152;-2.118;2022-09-17T15:50:32;12.60;99.90
27645;DHT22;15054;57.152;-2.118;2022-09-17T15:58:04;12.50;99.90
27645;DHT22;15054;57.152;-2.118;2022-09-17T16:00:31;12.60;99.90
27645;DHT22;15054;57.152;-2.118;2022-09-17T16:03:01;12.50;99.90
27645;DHT22;15054;57.152;-2.118;2022-09-17T16:05:44;12.50;99.90
27645;DHT22;15054;57.152;-2.118;2022-09-17T16:08:21;12.40;99.90
27645;DHT22;15054;57.152;-2.118;2022-09-17T16:10:49;12.40;99.90
27645;DHT22;15054;57.152;-2.118;2022-09-17T16:13:16;12.40;99.90
27645;DHT22;15054;57.152;-2.118;2022-09-17T16:15:43;12.40;99.90
27645;DHT22;15054;57.152;-2.118;2022-09-17T16:18:11;12.30;99.90
27645;DHT22;15054;57.152;-2.118;2022-09-17T16:20:38;12.30;99.90
27645;DHT22;15054;57.152;-2.118;2022-09-17T16:23:05;12.30;99.90
27645;DHT22;15054;57.152;-2.118;2022-09-17T16:25:32;12.30;99.90
27645;DHT22;15054;57.152;-2.118;2022-09-17T16:28:05;12.20;99.90
27645;DHT22;15054;57.152;-2.118;2022-09-17T16:30:32;12.20;99.90
27645;DHT22;15054;57.152;-2.118;2022-09-17T16:32:59;12.10;99.90
27645;DHT22;15054;57.152;-2.118;2022-09-17T16:35:29;12.00;99.90
27645;DHT22;15054;57.152;-2.118;2022-09-17T16:37:56;12.00;99.90
27645;DHT22;15054;57.152;-2.118;2022-09-17T16:40:24;11.90;99.90
27645;DHT22;15054;57.152;-2.118;2022-09-17T16:42:54;11.90;99.90
27645;DHT22;15054;57.152;-2.118;2022-09-17T16:45:21;11.80;99.90
27645;DHT22;15054;57.152;-2.118;2022-09-17T16:47:54;11.80;99.90
27645;DHT22;15054;57.152;-2.118;2022-09-17T16:50:21;11.70;99.90
27645;DHT22;15054;57.152;-2.118;2022-09-17T16:52:48;11.70;99.90
27645;DHT22;15054;57.152;-2.118;2022-09-17T16:55:16;11.70;99.90
27645;DHT22;15054;57.152;-2.118;2022-09-17T16:57:43;11.70;99.90
27645;DHT22;15054;57.152;-2.118;2022-09-17T17:00:11;11.70;99.90
27645;DHT22;15054;57.152;-2.118;2022-09-17T17:02:41;11.60;99.90
27645;DHT22;15054;57.152;-2.118;2022-09-17T17:05:08;11.60;99.90
27645;DHT22;15054;57.152;-2.118;2022-09-17T17:07:38;11.50;99.90
27645;DHT22;15054;57.152;-2.118;2022-09-17T17:10:05;11.30;99.90
27645;DHT22;15054;57.152;-2.118;2022-09-17T17:12:37;11.30;99.90
27645;DHT22;15054;57.152;-2.118;2022-09-17T17:15:04;11.20;99.90
27645;DHT22;15054;57.152;-2.118;2022-09-17T17:17:35;11.10;99.90
27645;DHT22;15054;57.152;-2.118;2022-09-17T17:20:03;11.10;99.90
27645;DHT22;15054;57.152;-2.118;2022-09-17T17:22:34;11.10;99.90
27645;DHT22;15054;57.152;-2.118;2022-09-17T17:25:03;11.10;99.90
27645;DHT22;15054;57.152;-2.118;2022-09-17T17:27:34;11.10;99.90
27645;DHT22;15054;57.152;-2.118;2022-09-17T17:30:02;11.10;99.90
27645;DHT22;15054;57.152;-2.118;2022-09-17T17:32:33;11.10;99.90
27645;DHT22;15054;57.152;-2.118;2022-09-17T17:35:00;11.10;99.90
27645;DHT22;15054;57.152;-2.118;2022-09-17T17:37:27;11.10;99.90
27645;DHT22;15054;57.152;-2.118;2022-09-17T17:39:54;11.10;99.90
27645;DHT22;15054;57.152;-2.118;2022-09-17T17:42:22;11.10;99.90
27645;DHT22;15054;57.152;-2.118;2022-09-17T17:44:49;11.10;99.90
27645;DHT22;15054;57.152;-2.118;2022-09-17T17:47:16;11.00;99.90
27645;DHT22;15054;57.152;-2.118;2022-09-17T17:49:43;11.00;99.90
27645;DHT22;15054;57.152;-2.118;2022-09-17T17:52:10;11.00;99.90
27645;DHT22;15054;57.152;-2.118;2022-09-17T17:54:37;11.00;99.90
27645;DHT22;15054;57.152;-2.118;2022-09-17T17:57:04;11.00;99.90
27645;DHT22;15054;57.152;-2.118;2022-09-17T17:59:31;11.00;99.90
27645;DHT22;15054;57.152;-2.118;2022-09-17T18:01:58;11.00;99.90
27645;DHT22;15054;57.152;-2.118;2022-09-17T18:04:25;11.00;99.90
27645;DHT22;15054;57.152;-2.118;2022-09-17T18:06:52;11.00;99.90
27645;DHT22;15054;57.152;-2.118;2022-09-17T18:09:19;10.90;99.90
27645;DHT22;15054;57.152;-2.118;2022-09-17T18:11:46;10.90;99.90
27645;DHT22;15054;57.152;-2.118;2022-09-17T18:14:13;10.90;99.90
27645;DHT22;15054;57.152;-2.118;2022-09-17T18:16:40;10.80;99.90
27645;DHT22;15054;57.152;-2.118;2022-09-17T18:19:10;10.80;99.90
27645;DHT22;15054;57.152;-2.118;2022-09-17T18:21:37;10.80;99.90
27645;DHT22;15054;57.152;-2.118;2022-09-17T18:24:04;10.80;99.90
27645;DHT22;15054;57.152;-2.118;2022-09-17T18:26:31;10.80;99.90
27645;DHT22;15054;57.152;-2.118;2022-09-17T18:28:59;10.80;99.90
27645;DHT22;15054;57.152;-2.118;2022-09-17T18:31:33;10.80;99.90
27645;DHT22;15054;57.152;-2.118;2022-09-17T18:34:01;10.70;99.90
27645;DHT22;15054;57.152;-2.118;2022-09-17T18:36:29;10.70;99.90
27645;DHT22;15054;57.152;-2.118;2022-09-17T18:38:58;10.70;99.90
27645;DHT22;15054;57.152;-2.118;2022-09-17T18:41:47;10.70;99.90
27645;DHT22;15054;57.152;-2.118;2022-09-17T18:44:14;10.70;99.90
27645;DHT22;15054;57.152;-2.118;2022-09-17T18:46:41;10.70;99.90
27645;DHT22;15054;57.152;-2.118;2022-09-17T18:49:08;10.70;99.90
27645;DHT22;15054;57.152;-2.118;2022-09-17T18:51:36;10.70;99.90
27645;DHT22;15054;57.152;-2.118;2022-09-17T18:54:03;10.70;99.90
27645;DHT22;15054;57.152;-2.118;2022-09-17T18:56:30;10.80;99.90
27645;DHT22;15054;57.152;-2.118;2022-09-17T18:59:00;10.80;99.90
27645;DHT22;15054;57.152;-2.118;2022-09-17T19:01:33;10.70;99.90
27645;DHT22;15054;57.152;-2.118;2022-09-17T19:04:01;10.70;99.90
27645;DHT22;15054;57.152;-2.118;2022-09-17T19:06:28;10.70;99.90
27645;DHT22;15054;57.152;-2.118;2022-09-17T19:09:00;10.60;99.90
27645;DHT22;15054;57.152;-2.118;2022-09-17T19:11:27;10.60;99.90
27645;DHT22;15054;57.152;-2.118;2022-09-17T19:13:54;10.50;99.90
27645;DHT22;15054;57.152;-2.118;2022-09-17T19:16:21;10.50;99.90
27645;DHT22;15054;57.152;-2.118;2022-09-17T19:18:48;10.50;99.90
27645;DHT22;15054;57.152;-2.118;2022-09-17T19:21:16;10.50;99.90
27645;DHT22;15054;57.152;-2.118;2022-09-17T19:23:44;10.50;99.90
27645;DHT22;15054;57.152;-2.118;2022-09-17T19:26:14;10.50;99.90